Tiempo atmosférico en la estación meteorológica de Llucmajor, Puig d?Escorca, Illes Balears (113 m.)



Fecha
DESCASC
Temp. máxima en grados centígrados (hora)
DESCASC
Temp. mínima en grados centígrados (hora)
DESCASC
Temp. media en grados centígrados
DESCASC
Racha de viento máxima en m/sg (hora)
DESCASC
Velocidad máxima media en intervalos de 10 minutos(hora)
DESCASC
Precipitaciones diarias en mm
DESCASC
Precipitaciones de 00:00 a 06:00 en mm
DESCASC
Precipitaciones de 06:00 a 12:00 en mm
DESCASC
Precipitaciones de 12:00 a 18:00 en mm
DESCASC
Precipitaciones de 18:00 a 24:00 en mm
DESCASC

Gráficas

Temp. máximas Temp. mínimas Temp. medias Precipitaciones Rachas de viento máximas Velocidades máximas media en intervalos de 10 minutos

Datos horarios

Fecha y hora oficial Temperatura (ºC) Velocidad del viento (km/h) Dirección del viento Racha (km/h) Dirección de racha Precipitación (mm) Presión (hPa) Tendencia (hPa) Humedad (%)
2019-12-15 23:00:00 13.8 10 Sur 18 Sudoeste 0 -- -- 81
2019-12-15 22:00:00 13.3 8 Sudoeste 19 Sudoeste 0 -- -- 83
2019-12-15 21:00:00 13.2 10 Sudoeste 19 Sudoeste 0 -- -- 81
2019-12-15 20:00:00 13.5 10 Sudoeste 20 Sudoeste 0 -- -- 83
2019-12-15 19:00:00 13.7 11 Sudoeste 21 Sudoeste 0 -- -- 83
2019-12-15 18:00:00 13.7 10 Sudoeste 19 Sudoeste 0 -- -- 81
2019-12-15 17:00:00 14.8 10 Sudoeste 20 Sur 0 -- -- 75
2019-12-15 16:00:00 17 11 Sudoeste 18 Sudoeste 0 -- -- 65
2019-12-15 15:00:00 17.2 11 Sudoeste 22 Sudoeste 0 -- -- 64
2019-12-15 14:00:00 16.6 13 Oeste 22 Oeste 0 -- -- 64
2019-12-15 13:00:00 16.8 13 Oeste 26 Oeste 0 -- -- 68
2019-12-15 12:00:00 16.4 14 Oeste 27 Oeste 0 -- -- 67
2019-12-15 11:00:00 16.6 14 Oeste 27 Oeste 0 -- -- 69
2019-12-15 10:00:00 15 18 Oeste 32 Oeste 0 -- -- 75
2019-12-15 09:00:00 14.1 19 Oeste 31 Sudoeste 0 -- -- 77
2019-12-15 08:00:00 13 18 Oeste 31 Oeste 0 -- -- 78
2019-12-15 07:00:00 12.9 15 Oeste 24 Oeste 0 -- -- 79
2019-12-15 06:00:00 12.7 13 Oeste 25 Oeste 0 -- -- 79
2019-12-15 05:00:00 12.7 14 Oeste 22 Oeste 0 -- -- 85
2019-12-15 04:00:00 12.8 10 Oeste 18 Oeste 0 -- -- 90
2019-12-15 03:00:00 13.4 9 Oeste 19 Oeste 0 -- -- 90
2019-12-15 02:00:00 13.6 12 Oeste 23 Oeste 0 -- -- 90
2019-12-15 01:00:00 13.9 15 Oeste 24 Oeste 0 -- -- 90
2019-12-15 00:00:00 14.2 14 Oeste 25 Oeste 0 -- -- 88
2019-12-14 23:00:00 14.1 12 Oeste 22 Oeste 0 -- -- 84
2019-12-14 22:00:00 14.4 13 Oeste 35 Oeste 0 -- -- 82
2019-12-14 21:00:00 14.4 14 Oeste 28 Oeste 0 -- -- 84
2019-12-14 20:00:00 14.4 16 Oeste 27 Oeste 0 -- -- 85
2019-12-14 19:00:00 14.2 11 Oeste 21 Oeste 0 -- -- 86
2019-12-14 18:00:00 14.3 11 Oeste 22 Oeste 0 -- -- 85
2019-12-14 17:00:00 14.8 15 Oeste 26 Oeste 0 -- -- 82
2019-12-14 16:00:00 15.8 18 Oeste 32 Oeste 0 -- -- 78
2019-12-14 15:00:00 16.5 18 Oeste 33 Oeste 0 -- -- 76
2019-12-14 14:00:00 16.9 17 Oeste 32 Oeste 0 -- -- 76
2019-12-14 13:00:00 17.1 17 Oeste 33 Oeste 0 -- -- 76
2019-12-14 12:00:00 17.3 17 Oeste 32 Oeste 0 -- -- 76
2019-12-14 11:00:00 17.4 15 Oeste 27 Oeste 0 -- -- 76
2019-12-14 10:00:00 16.3 16 Oeste 32 Noroeste 0 -- -- 79
2019-12-14 09:00:00 15.9 14 Oeste 33 Oeste 0 -- -- 80
2019-12-14 08:00:00 14.5 11 Oeste 44 Noroeste 0 -- -- 81
2019-12-14 07:00:00 14.8 31 Noroeste 50 Noroeste 0 -- -- 82
2019-12-14 06:00:00 14.9 21 Oeste 35 Noroeste 0 -- -- 84
2019-12-14 05:00:00 15.1 23 Noroeste 51 Oeste 0 -- -- 82
2019-12-14 04:00:00 15.5 24 Noroeste 48 Noroeste 0 -- -- 80
2019-12-14 03:00:00 15.5 27 Noroeste 56 Noroeste 0 -- -- 80
2019-12-14 02:00:00 15.5 30 Noroeste 55 Noroeste 0 -- -- 81
2019-12-14 01:00:00 15.6 31 Noroeste 49 Noroeste 0 -- -- 81
2019-12-14 00:00:00 16 26 Oeste 53 Noroeste 0 -- -- 79
2019-12-13 23:00:00 16.3 24 Oeste 44 Oeste 0 -- -- 79
2019-12-13 22:00:00 15.9 23 Noroeste 35 Oeste 0 -- -- 81
2019-12-13 21:00:00 16 17 Oeste 35 Noroeste 0 -- -- 81
2019-12-13 20:00:00 16 11 Oeste 40 Oeste 0 -- -- 79
2019-12-13 19:00:00 16.2 27 Noroeste 67 Noroeste 0 -- -- 78
2019-12-13 18:00:00 16.4 35 Noroeste 59 Oeste 0 -- -- 74
2019-12-13 17:00:00 16.3 34 Noroeste 58 Oeste 0 -- -- 76
2019-12-13 16:00:00 16.4 28 Oeste 52 Oeste 0 -- -- 75
2019-12-13 15:00:00 16.5 31 Oeste 62 Oeste 0 -- -- 75
2019-12-13 14:00:00 16.7 31 Oeste 57 Oeste 0 -- -- 75
2019-12-13 13:00:00 16.7 32 Oeste 64 Oeste 0 -- -- 75
2019-12-13 12:00:00 16.8 33 Oeste 63 Oeste 0 -- -- 76
2019-12-13 11:00:00 16.8 28 Oeste 60 Oeste 0 -- -- 77
2019-12-13 10:00:00 16.4 33 Oeste 64 Oeste 0 -- -- 78
2019-12-13 09:00:00 16 35 Oeste 69 Oeste 0 -- -- 79
2019-12-13 08:00:00 15.7 32 Oeste 61 Sudoeste 0 -- -- 79
2019-12-13 07:00:00 15.6 30 Oeste 60 Oeste 0 -- -- 77
2019-12-13 06:00:00 15.5 35 Oeste 61 Oeste 0 -- -- 77
2019-12-13 05:00:00 15.1 32 Oeste 59 Oeste 0 -- -- 77
2019-12-13 04:00:00 15.1 35 Oeste 61 Oeste 0 -- -- 76
2019-12-13 03:00:00 15 36 Oeste 63 Oeste 0 -- -- 73
2019-12-13 02:00:00 14.8 39 Oeste 67 Oeste 0 -- -- 72
2019-12-13 01:00:00 14.4 35 Oeste 67 Oeste 0 -- -- 73
2019-12-13 00:00:00 14.1 37 Oeste 66 Oeste 0 -- -- 72
2019-12-12 23:00:00 13.9 37 Oeste 67 Oeste 0 -- -- 71
2019-12-12 22:00:00 13.8 33 Oeste 61 Oeste 0 -- -- 71
2019-12-12 21:00:00 13.8 32 Oeste 57 Oeste 0 -- -- 70
2019-12-12 20:00:00 13.5 30 Oeste 52 Oeste 0 -- -- 70
2019-12-12 19:00:00 13.3 30 Oeste 49 Oeste 0 -- -- 71
2019-12-12 18:00:00 13.1 23 Oeste 41 Oeste 0 -- -- 72
2019-12-12 17:00:00 13.1 20 Oeste 41 Oeste 0 -- -- 73
2019-12-12 16:00:00 13.1 21 Oeste 37 Oeste 0 -- -- 73
2019-12-12 15:00:00 14 18 Oeste 42 Oeste 0 -- -- 70
2019-12-12 14:00:00 14.1 22 Oeste 40 Oeste 0 -- -- 70
2019-12-12 13:00:00 14.8 22 Oeste 41 Oeste 0 -- -- 68
2019-12-12 12:00:00 15.3 22 Oeste 41 Noroeste 0 -- -- 65
2019-12-12 11:00:00 14.8 22 Oeste 41 Oeste 0 -- -- 66
2019-12-12 10:00:00 14.3 26 Noroeste 44 Noroeste 0 -- -- 58
2019-12-12 09:00:00 13.6 29 Noroeste 49 Oeste 0 -- -- 59
2019-12-12 08:00:00 13.5 28 Noroeste 44 Oeste 0 -- -- 54
2019-12-12 07:00:00 13 25 Noroeste 44 Oeste 0 -- -- 57
2019-12-12 06:00:00 12.8 23 Noroeste 38 Noroeste 0 -- -- 56
2019-12-12 05:00:00 13.1 27 Noroeste 48 Noroeste 0 -- -- 56
2019-12-12 04:00:00 12.1 18 Noroeste 32 Noroeste 0 -- -- 62
2019-12-12 03:00:00 11.6 16 Noroeste 37 Noroeste 0 -- -- 60
2019-12-12 02:00:00 12 25 Noroeste 42 Oeste 0 -- -- 60
2019-12-12 01:00:00 11.9 16 Noroeste 33 Noroeste 0 -- -- 62
2019-12-12 00:00:00 11.9 13 Noroeste 31 Noroeste 0 -- -- 66
2019-12-11 23:00:00 12.4 18 Noroeste 33 Norte 0 -- -- 70
2019-12-11 22:00:00 12.3 11 Noroeste 35 Noroeste 0 -- -- 72
2019-12-11 21:00:00 12.5 26 Noroeste 53 Norte 0 -- -- 70
2019-12-11 20:00:00 12.6 24 Noroeste 50 Noroeste 0 -- -- 69
2019-12-11 19:00:00 13.3 20 Noroeste 45 Noroeste 0 -- -- 70
2019-12-11 18:00:00 13.5 15 Noroeste 36 Noroeste 0 -- -- 73
2019-12-11 17:00:00 14.1 21 Oeste 37 Oeste 0 -- -- 71
2019-12-11 16:00:00 15.4 15 Oeste 31 Oeste 0 -- -- 69
2019-12-11 15:00:00 15.8 17 Oeste 28 Oeste 0 -- -- 74
2019-12-11 14:00:00 16.4 15 Oeste 30 Oeste 0 -- -- 77
2019-12-11 13:00:00 16.3 15 Oeste 26 Oeste 0 -- -- 76
2019-12-11 12:00:00 16 12 Oeste 24 Oeste 0 -- -- 78
2019-12-11 11:00:00 17 9 Oeste 20 Oeste 0 -- -- 79
2019-12-11 10:00:00 15.2 13 Oeste 23 Oeste 0 -- -- 77
2019-12-11 09:00:00 13.8 11 Oeste 21 Oeste 0 -- -- 82
2019-12-11 08:00:00 12.1 11 Sudoeste 20 Sudoeste 0 -- -- 84
2019-12-11 07:00:00 11 8 Oeste 13 Oeste 0 -- -- 87
2019-12-11 06:00:00 11 5 Oeste 10 Oeste 0 -- -- 85
2019-12-11 05:00:00 9.9 8 Noroeste 10 Oeste 0 -- -- 86
2019-12-11 04:00:00 10.7 6 Noroeste 10 Oeste 0 -- -- 84
2019-12-11 03:00:00 10.6 6 Oeste 9 Oeste 0 -- -- 84
2019-12-11 02:00:00 10.7 8 Noroeste 16 Oeste 0 -- -- 82
2019-12-11 01:00:00 11.7 10 Oeste 20 Oeste 0 -- -- 80
2019-12-11 00:00:00 11 11 Noroeste 17 Noroeste 0 -- -- 82
2019-12-10 23:00:00 10.7 9 Noroeste 19 Noroeste 0 -- -- 78
2019-12-10 22:00:00 11.3 10 Noroeste 21 Oeste 0 -- -- 75
2019-12-10 21:00:00 11.5 14 Noroeste 24 Noroeste 0 -- -- 75
2019-12-10 20:00:00 11.8 13 Noroeste 31 Oeste 0 -- -- 74
2019-12-10 19:00:00 12.3 19 Noroeste 33 Oeste 0 -- -- 69
2019-12-10 18:00:00 11.8 9 Oeste 20 Oeste 0 -- -- 73
2019-12-10 17:00:00 13 12 Oeste 22 Oeste 0 -- -- 69
2019-12-10 16:00:00 14.8 13 Oeste 23 Oeste 0 -- -- 62
2019-12-10 15:00:00 15.7 10 Sudoeste 17 Oeste 0 -- -- 57
2019-12-10 14:00:00 15.5 9 Oeste 18 Oeste 0 -- -- 55
2019-12-10 13:00:00 16.5 4 Norte 18 Oeste 0 -- -- 52
2019-12-10 12:00:00 16.2 6 Nordeste 18 Este 0 -- -- 53
2019-12-10 11:00:00 16 12 Nordeste 23 Nordeste 0 -- -- 57
2019-12-10 10:00:00 14.3 8 Este 14 Este 0 -- -- 59
2019-12-10 09:00:00 12.6 8 Nordeste 28 Oeste 0 -- -- 67
2019-12-10 08:00:00 11.9 16 Noroeste 35 Noroeste 0 -- -- 66
2019-12-10 07:00:00 11.6 15 Noroeste 38 Noroeste 0 -- -- 70
2019-12-10 06:00:00 12 20 Noroeste 39 Noroeste 0 -- -- 69
2019-12-10 05:00:00 12.2 25 Norte 45 Noroeste 0 -- -- 69
2019-12-10 04:00:00 12 18 Noroeste 47 Noroeste 0 -- -- 69
2019-12-10 03:00:00 12.5 27 Noroeste 41 Noroeste 0 -- -- 67
2019-12-10 02:00:00 12.7 23 Noroeste 40 Noroeste 0 -- -- 67
2019-12-10 01:00:00 12.6 17 Noroeste 30 Noroeste 0 -- -- 67
2019-12-10 00:00:00 12.2 7 Norte 38 Noroeste 0 -- -- 67
2019-12-09 23:00:00 13.2 26 Noroeste 59 Noroeste 0 -- -- 62
2019-12-09 22:00:00 13.5 25 Noroeste 49 Norte 0 -- -- 62
2019-12-09 21:00:00 13.8 32 Noroeste 57 Noroeste 0 -- -- 63
2019-12-09 20:00:00 13.8 31 Noroeste 53 Noroeste 0 -- -- 62
2019-12-09 19:00:00 13.9 20 Noroeste 52 Norte 0 -- -- 60
2019-12-09 18:00:00 14.3 24 Noroeste 67 Noroeste 0 -- -- 61
2019-12-09 17:00:00 14.8 41 Noroeste 67 Norte 0 -- -- 56
2019-12-09 16:00:00 15.7 38 Noroeste 68 Noroeste 0 -- -- 53
2019-12-09 15:00:00 16.2 35 Noroeste 65 Noroeste 0 -- -- 51
2019-12-09 14:00:00 17.1 36 Noroeste 65 Noroeste 0 -- -- 46
2019-12-09 13:00:00 17 31 Noroeste 55 Oeste 0 -- -- 52
2019-12-09 12:00:00 16.6 27 Noroeste 42 Oeste 0 -- -- 59
2019-12-09 11:00:00 16.9 24 Noroeste 45 Noroeste 0 -- -- 52
2019-12-09 10:00:00 15.2 21 Noroeste 41 Noroeste 0 -- -- 58
2019-12-09 09:00:00 14.6 17 Noroeste 28 Oeste 0 -- -- 76
2019-12-09 08:00:00 11.5 8 Norte 19 Noroeste 0 -- -- 84
2019-12-09 07:00:00 12.9 9 Noroeste 24 Noroeste 0 -- -- 82
2019-12-09 06:00:00 13.7 16 Noroeste 32 Noroeste 0 -- -- 87
2019-12-09 05:00:00 13 8 Oeste 15 Oeste 0 -- -- 92
2019-12-09 04:00:00 13.3 6 Oeste 16 Noroeste 0 -- -- 91
2019-12-09 03:00:00 13.7 11 Noroeste 18 Oeste 0 -- -- 89
2019-12-09 02:00:00 14.1 10 Oeste 19 Oeste 0 -- -- 88
2019-12-09 01:00:00 14.2 9 Oeste 19 Oeste 0 -- -- 88
2019-12-09 00:00:00 13.9 12 Sudoeste 21 Sudoeste 0 -- -- 88
2019-12-08 23:00:00 13.6 11 Oeste 22 Oeste 0 -- -- 88
2019-12-08 22:00:00 13.9 14 Oeste 25 Sudoeste 0 -- -- 86
2019-12-08 21:00:00 13.9 14 Oeste 24 Oeste 0 -- -- 86
2019-12-08 20:00:00 13.7 14 Oeste 24 Oeste 0 -- -- 85
2019-12-08 19:00:00 13.7 13 Oeste 27 Oeste 0 -- -- 86
2019-12-08 18:00:00 13.2 12 Oeste 23 Oeste 0 -- -- 84
2019-12-08 17:00:00 14.3 14 Oeste 25 Oeste 0 -- -- 81
2019-12-08 16:00:00 15 14 Oeste 25 Oeste 0 -- -- 79
2019-12-08 15:00:00 14.9 15 Oeste 24 Oeste 0 -- -- 81
2019-12-08 14:00:00 15.6 14 Oeste 26 Oeste 0 -- -- 81
2019-12-08 13:00:00 16 14 Oeste 23 Sudoeste 0 -- -- 87
2019-12-08 12:00:00 16 10 Oeste 18 Oeste 0 -- -- 93
2019-12-08 11:00:00 15.5 8 Oeste 15 Oeste 0 -- -- 94
2019-12-08 10:00:00 14.2 6 Oeste 11 Oeste 0 -- -- 96
2019-12-08 09:00:00 12.5 6 Oeste 8 Noroeste 0 -- -- 99
2019-12-08 08:00:00 9.4 3 Sudoeste 4 Sur 0 -- -- 100
2019-12-08 07:00:00 10.9 3 Sur 4 Sur 0 -- -- 99
2019-12-08 06:00:00 9.3 0 Calma 7 Sur 0 -- -- 97
2019-12-08 05:00:00 11.2 6 Sur 8 Sur 0 -- -- 99
2019-12-08 04:00:00 10.4 4 Este 6 Este 0 -- -- 99
2019-12-08 03:00:00 10.4 3 Este 6 Nordeste 0 -- -- 98
2019-12-08 02:00:00 10.2 6 Nordeste 8 Nordeste 0 -- -- 97
2019-12-08 01:00:00 11.1 2 Noroeste 4 Norte 0 -- -- 96
2019-12-08 00:00:00 11 4 Norte 9 Norte 0 -- -- 96
2019-12-07 23:00:00 11.4 5 Norte 6 Norte 0 -- -- 95
2019-12-07 22:00:00 11.6 3 Norte 5 Norte 0 -- -- 94
2019-12-07 21:00:00 11.9 0 Calma 3 Noroeste 0 -- -- 93
2019-12-07 20:00:00 12.3 0 Calma 4 Norte 0 -- -- 92
2019-12-07 19:00:00 12.6 0 Calma -- -- 0 -- -- 91
2019-12-07 18:00:00 12.9 0 Calma -- -- 0 -- -- 89
2019-12-07 17:00:00 14.1 0 Calma 5 Sur 0 -- -- 85
2019-12-07 16:00:00 14.9 5 Sur 9 Sur 0 -- -- 83
2019-12-07 15:00:00 15.6 4 Oeste 9 Oeste 0 -- -- 83
2019-12-07 14:00:00 15.1 7 Oeste 11 Oeste 0 -- -- 85
2019-12-07 13:00:00 15.7 3 Nordeste 8 Este 0 -- -- 91
2019-12-07 12:00:00 14.8 5 Nordeste 9 Nordeste 0 -- -- 94
2019-12-07 11:00:00 12.8 4 Nordeste 8 Nordeste 0 -- -- 96
2019-12-07 10:00:00 10.9 6 Nordeste 9 Nordeste 0 -- -- 97
2019-12-07 09:00:00 10.4 7 Nordeste 10 Este 0 -- -- 98
2019-12-07 08:00:00 10.2 7 Este 9 Este 0 -- -- 98
2019-12-07 07:00:00 10.6 5 Este 9 Nordeste 0 -- -- 98
2019-12-07 06:00:00 10 7 Nordeste 10 Norte 0 -- -- 97
2019-12-07 05:00:00 10.2 5 Nordeste 10 Nordeste 0 -- -- 97
2019-12-07 04:00:00 10.2 8 Norte 10 Norte 0 -- -- 97
2019-12-07 03:00:00 10.4 7 Nordeste 10 Nordeste 0 -- -- 96
2019-12-07 02:00:00 10.8 6 Este 10 Este 0 -- -- 96
2019-12-07 01:00:00 10.7 6 Nordeste 10 Nordeste 0 -- -- 96
2019-12-07 00:00:00 10.7 8 Norte 11 Nordeste 0 -- -- 95
2019-12-06 23:00:00 11.5 7 Nordeste 10 Nordeste 0 -- -- 94
2019-12-06 22:00:00 12.1 6 Nordeste 10 Nordeste 0 -- -- 93
2019-12-06 21:00:00 11.9 7 Nordeste 11 Nordeste 0 -- -- 93
2019-12-06 20:00:00 12.1 7 Nordeste 10 Este 0 -- -- 92
2019-12-06 19:00:00 13 8 Este 12 Este 0 -- -- 89
2019-12-06 18:00:00 13.3 8 Sudeste 10 Sudeste 0 -- -- 85
2019-12-06 17:00:00 15.4 5 Sudeste 9 Sudeste 0 -- -- 76
2019-12-06 16:00:00 18.4 3 Sur 9 Oeste 0 -- -- 66
2019-12-06 15:00:00 17 6 Oeste 14 Oeste 0 -- -- 72
2019-12-06 14:00:00 18.2 8 Sudoeste 14 Sudeste 0 -- -- 67
2019-12-06 13:00:00 18.1 6 Este 13 Este 0 -- -- 68
2019-12-06 12:00:00 17.6 6 Este 14 Este 0 -- -- 71
2019-12-06 11:00:00 18.3 7 Nordeste 12 Este 0 -- -- 82
2019-12-06 10:00:00 15.8 8 Nordeste 13 Este 0 -- -- 93
2019-12-06 09:00:00 12 7 Nordeste 12 Nordeste 0 -- -- 97
2019-12-06 08:00:00 11.5 9 Nordeste 12 Nordeste 0 -- -- 98
2019-12-06 07:00:00 11 7 Nordeste 10 Nordeste 0 -- -- 97
2019-12-06 06:00:00 11.4 6 Nordeste 9 Norte 0 -- -- 98
2019-12-06 05:00:00 11.4 5 Nordeste 10 Nordeste 0 -- -- 96
2019-12-06 04:00:00 11.8 6 Nordeste 12 Norte 0 -- -- 96
2019-12-06 03:00:00 12 6 Norte 9 Norte 0 -- -- 96
2019-12-06 02:00:00 11.2 6 Norte 10 Norte 0 -- -- 96
2019-12-06 01:00:00 11.2 6 Nordeste 10 Nordeste 0 -- -- 94
2019-12-06 00:00:00 12.1 3 Este 4 Este 0 -- -- 94
2019-12-05 23:00:00 11.7 4 Nordeste 9 Nordeste 0 -- -- 93
2019-12-05 22:00:00 12 4 Nordeste 5 Nordeste 0 -- -- 90
2019-12-05 21:00:00 12.8 0 Calma 3 Sur 0 -- -- 91
2019-12-05 20:00:00 12.8 3 Noroeste 5 Oeste 0 -- -- 89
2019-12-05 19:00:00 12.8 3 Noroeste 6 Sudoeste 0 -- -- 87
2019-12-05 18:00:00 13.4 4 Sudoeste 11 Sudoeste 0 -- -- 84
2019-12-05 17:00:00 15.5 6 Oeste 13 Oeste 0 -- -- 79
2019-12-05 16:00:00 16.9 8 Oeste 15 Oeste 0 -- -- 77
2019-12-05 15:00:00 17.8 8 Sudoeste 15 Sudoeste 0 -- -- 73
2019-12-05 14:00:00 17.2 9 Sudoeste 17 Sur 0 -- -- 74
2019-12-05 13:00:00 18 9 Sudoeste 14 Oeste 0 -- -- 74
2019-12-05 12:00:00 18.2 6 Sudoeste 12 Oeste 0 -- -- 75
2019-12-05 11:00:00 18 7 Sur 12 Sur 0 -- -- 84
2019-12-05 10:00:00 15.6 4 Sur 8 Sur 0 -- -- 93
2019-12-05 09:00:00 14.4 0 Calma 6 Norte 0 -- -- 96
2019-12-05 08:00:00 12 3 Sur 6 Sudoeste 0 -- -- 99
2019-12-05 07:00:00 11.8 4 Oeste 5 Oeste 0 -- -- 98
2019-12-05 06:00:00 11.5 0 Calma 8 Oeste 0 -- -- 98
2019-12-05 05:00:00 10.5 7 Noroeste 13 Norte 0 -- -- 98
2019-12-05 04:00:00 10.8 8 Norte 12 Norte 0 -- -- 98
2019-12-05 03:00:00 11.4 3 Sudoeste 4 Oeste 0 -- -- 98
2019-12-05 02:00:00 11.2 3 Este 8 Este 0 -- -- 98
2019-12-05 01:00:00 10.5 6 Este 13 Nordeste 0 -- -- 99
2019-12-05 00:00:00 10.1 6 Nordeste 12 Nordeste 0 -- -- 97
2019-12-04 23:00:00 10.4 7 Nordeste 15 Nordeste 0 -- -- 96
2019-12-04 22:00:00 10.2 10 Nordeste 16 Nordeste 0 -- -- 96
2019-12-04 21:00:00 10.5 12 Nordeste 19 Nordeste 0 -- -- 95
2019-12-04 20:00:00 10.9 8 Nordeste 15 Nordeste 1 -- -- 94
2019-12-04 19:00:00 10.7 9 Nordeste 17 Nordeste 0 -- -- 93
2019-12-04 18:00:00 10.7 10 Nordeste 19 Nordeste 0 -- -- 92
2019-12-04 17:00:00 11.5 13 Nordeste 26 Este 0 -- -- 93
2019-12-04 16:00:00 12.8 13 Nordeste 27 Nordeste 0 -- -- 95
2019-12-04 15:00:00 11.8 15 Nordeste 35 Nordeste 0 -- -- 96
2019-12-04 14:00:00 12.6 16 Nordeste 26 Nordeste 0 -- -- 96
2019-12-04 13:00:00 10.8 15 Norte 23 Norte 0 -- -- 96
2019-12-04 12:00:00 11.4 8 Norte 19 Norte 0.6 -- -- 96
2019-12-04 11:00:00 11.9 6 Nordeste 35 Este 12.4 -- -- 95
2019-12-04 10:00:00 13.3 17 Nordeste 28 Nordeste 1.6 -- -- 93
2019-12-04 09:00:00 12.1 9 Nordeste 21 Este 0 -- -- 94
2019-12-04 08:00:00 12 13 Nordeste 28 Este 0 -- -- 95
2019-12-04 07:00:00 15.2 17 Este 45 Sudeste 0 -- -- 95
2019-12-04 06:00:00 15.7 26 Sudeste 41 Sudeste 0.2 -- -- 96
2019-12-04 05:00:00 14.4 26 Este 57 Este 0 -- -- 96
2019-12-04 04:00:00 14.4 28 Este 46 Este 0.4 -- -- 98
2019-12-04 03:00:00 11 17 Este 44 Este 3.8 -- -- 97
2019-12-04 02:00:00 12.3 36 Sudeste 74 Este 5.4 -- -- 92
2019-12-04 01:00:00 14.8 22 Este 45 Nordeste 0 -- -- 95
2019-12-04 00:00:00 14.3 22 Este 42 Nordeste 5.4 -- -- 94
2019-12-03 23:00:00 14.1 21 Nordeste 50 Nordeste 2 -- -- 92
2019-12-03 22:00:00 13.8 14 Nordeste 28 Nordeste 2.2 -- -- 88
2019-12-03 21:00:00 14.3 17 Nordeste 30 Este 0 -- -- 85
2019-12-03 20:00:00 14.1 12 Nordeste 35 Nordeste 0 -- -- 80
2019-12-03 19:00:00 13.6 17 Nordeste 36 Este 0 -- -- 79
2019-12-03 18:00:00 13.1 17 Nordeste 34 Nordeste 0 -- -- 79
2019-12-03 17:00:00 13.3 18 Nordeste 36 Nordeste 0 -- -- 77
2019-12-03 16:00:00 13.4 21 Este 40 Nordeste 0 -- -- 74
2019-12-03 15:00:00 14.4 19 Nordeste 45 Nordeste 0 -- -- 71
2019-12-03 14:00:00 13.8 26 Nordeste 41 Nordeste 0 -- -- 71
2019-12-03 13:00:00 13.6 20 Nordeste 36 Nordeste 0 -- -- 73
2019-12-03 12:00:00 13.5 19 Nordeste 51 Nordeste 0 -- -- 73
2019-12-03 11:00:00 12.7 23 Nordeste 43 Este 0 -- -- 73
2019-12-03 10:00:00 11.4 20 Nordeste 35 Nordeste 0 -- -- 77
2019-12-03 09:00:00 11.6 17 Nordeste 36 Nordeste 0 -- -- 77
2019-12-03 08:00:00 11.1 20 Nordeste 45 Nordeste 0 -- -- 77
2019-12-03 07:00:00 11 24 Nordeste 45 Nordeste 0 -- -- 77
2019-12-03 06:00:00 11.4 29 Nordeste 51 Nordeste 0 -- -- 78
2019-12-03 05:00:00 11.3 22 Nordeste 40 Nordeste 0 -- -- 79
2019-12-03 04:00:00 11.5 24 Nordeste 42 Nordeste 0 -- -- 80
2019-12-03 03:00:00 11.8 22 Nordeste 40 Nordeste 0 -- -- 80
2019-12-03 02:00:00 11.9 20 Nordeste 44 Este 0 -- -- 80
2019-12-03 01:00:00 12 22 Nordeste 36 Nordeste 0 -- -- 79
2019-12-03 00:00:00 12.3 21 Nordeste 40 Nordeste 0 -- -- 79
2019-12-02 23:00:00 12.3 22 Nordeste 38 Nordeste 0 -- -- 79
2019-12-02 22:00:00 12.2 23 Nordeste 42 Nordeste 0 -- -- 80
2019-12-02 21:00:00 11.8 19 Nordeste 37 Nordeste 0 -- -- 82
2019-12-02 20:00:00 11.8 19 Nordeste 35 Nordeste 0 -- -- 82
2019-12-02 19:00:00 11.9 20 Nordeste 36 Nordeste 0 -- -- 82
2019-12-02 18:00:00 12.3 21 Nordeste 36 Nordeste 0 -- -- 81
2019-12-02 17:00:00 12.9 19 Nordeste 40 Nordeste 0 -- -- 80
2019-12-02 16:00:00 13.6 22 Nordeste 43 Nordeste 0 -- -- 78
2019-12-02 15:00:00 15.1 24 Nordeste 40 Nordeste 0 -- -- 78
2019-12-02 14:00:00 15.1 27 Nordeste 42 Este 0 -- -- 87
2019-12-02 13:00:00 13.9 20 Nordeste 40 Nordeste 0 -- -- 96
2019-12-02 12:00:00 12.9 21 Nordeste 35 Nordeste 0.4 -- -- 97
2019-12-02 11:00:00 12.6 15 Nordeste 33 Nordeste 0.4 -- -- 98
2019-12-02 10:00:00 12.3 17 Nordeste 30 Nordeste 3.2 -- -- 98
2019-12-02 09:00:00 12.6 13 Nordeste 30 Nordeste 0.4 -- -- 97
2019-12-02 08:00:00 11.8 13 Nordeste 22 Nordeste 0.4 -- -- 97
2019-12-02 07:00:00 12.8 13 Nordeste 25 Nordeste 0.4 -- -- 97
2019-12-02 06:00:00 12.6 12 Nordeste 18 Este 0 -- -- 97
2019-12-02 05:00:00 12.8 12 Este 22 Este 0 -- -- 96
2019-12-02 04:00:00 13.1 10 Este 19 Este 0 -- -- 96
2019-12-02 03:00:00 13.2 9 Este 15 Nordeste 0 -- -- 96
2019-12-02 02:00:00 13.3 10 Nordeste 21 Nordeste 0 -- -- 96
2019-12-02 01:00:00 13.3 10 Nordeste 18 Nordeste 0 -- -- 96
2019-12-02 00:00:00 13.2 12 Nordeste 18 Este 0 -- -- 95
2019-12-01 23:00:00 13.1 8 Nordeste 14 Nordeste 0 -- -- 95
2019-12-01 22:00:00 12.9 6 Este 11 Nordeste 0 -- -- 94
2019-12-01 21:00:00 12.8 7 Nordeste 13 Norte 0 -- -- 93
2019-12-01 20:00:00 13.2 6 Nordeste 9 Nordeste 0 -- -- 91
2019-12-01 19:00:00 14.3 0 Calma 9 Oeste 0 -- -- 90
2019-12-01 18:00:00 14.8 5 Oeste 10 Sudoeste 0 -- -- 87
2019-12-01 17:00:00 16 6 Oeste 15 Oeste 0 -- -- 83
2019-12-01 16:00:00 17.9 12 Oeste 18 Oeste 0 -- -- 80
2019-12-01 15:00:00 17.7 11 Sudoeste 23 Sudoeste 0 -- -- 81
2019-12-01 14:00:00 17.9 12 Oeste 25 Oeste 0 -- -- 81
2019-12-01 13:00:00 17.9 12 Oeste 20 Sudoeste 0 -- -- 80
2019-12-01 12:00:00 19 12 Sudoeste 22 Sudoeste 0 -- -- 79
2019-12-01 11:00:00 18.6 13 Oeste 23 Oeste 0 -- -- 85
2019-12-01 10:00:00 16.6 13 Sudoeste 26 Oeste 0 -- -- 90
2019-12-01 09:00:00 15.6 14 Oeste 26 Sudoeste 0 -- -- 92
2019-12-01 08:00:00 15.1 12 Sudoeste 20 Sudoeste 0 -- -- 91
2019-12-01 07:00:00 15.1 9 Sudoeste 21 Sudoeste 0 -- -- 89
2019-12-01 06:00:00 15 9 Sudoeste 18 Sudoeste 0 -- -- 89
2019-12-01 05:00:00 14.8 12 Sudoeste 22 Sudoeste 0 -- -- 90
2019-12-01 04:00:00 15.3 13 Sudoeste 26 Sudoeste 0 -- -- 91
2019-12-01 03:00:00 15.2 12 Sudoeste 27 Sur 0 -- -- 93
2019-12-01 02:00:00 15.3 15 Sudoeste 26 Sudoeste 0 -- -- 94
2019-12-01 01:00:00 15.1 17 Sur 31 Sur 0 -- -- 95
2019-12-01 00:00:00 14.9 14 Sur 22 Sudoeste 0 -- -- 95
2019-11-30 23:00:00 15.2 13 Sur 21 Sudoeste 0 -- -- 94
2019-11-30 22:00:00 15.5 10 Sudoeste 19 Sudoeste 0 -- -- 94
2019-11-30 21:00:00 15.6 12 Sudoeste 22 Sudoeste 0 -- -- 92
2019-11-30 20:00:00 15.5 13 Sudoeste 23 Sudoeste 0 -- -- 91
2019-11-30 19:00:00 15.6 10 Sudoeste 21 Sur 0 -- -- 91
2019-11-30 18:00:00 15.5 12 Sudoeste 23 Sudoeste 0 -- -- 90
2019-11-30 17:00:00 16.1 13 Sur 23 Sur 0 -- -- 87
2019-11-30 16:00:00 17 14 Sur 22 Sur 0 -- -- 85
2019-11-30 15:00:00 18.2 10 Sudoeste 19 Sudoeste 0 -- -- 83
2019-11-30 14:00:00 18 11 Sur 19 Sudoeste 0 -- -- 85
2019-11-30 13:00:00 17.8 11 Sudoeste 17 Sudoeste 0 -- -- 89
2019-11-30 12:00:00 18 8 Sudoeste 14 Sur 0 -- -- 95
2019-11-30 11:00:00 16.5 8 Sur 13 Sudoeste 0 -- -- 95
2019-11-30 10:00:00 14.8 0 Calma 3 Sudeste 0 -- -- 98
2019-11-30 09:00:00 13.5 0 Calma 5 Este 0 -- -- 99
2019-11-30 08:00:00 13.2 3 Sudeste 6 Nordeste 0 -- -- 99
2019-11-30 07:00:00 11.7 4 Nordeste 6 Nordeste 0 -- -- 99
2019-11-30 06:00:00 12.5 3 Este 7 Nordeste 0 -- -- 99
2019-11-30 05:00:00 12.1 4 Nordeste 7 Nordeste 0 -- -- 98
2019-11-30 04:00:00 12.2 5 Nordeste 6 Nordeste 0 -- -- 98
2019-11-30 03:00:00 13 5 Este 12 Este 0 -- -- 98
2019-11-30 02:00:00 12.3 6 Nordeste 12 Nordeste 0 -- -- 97
2019-11-30 01:00:00 12.2 5 Nordeste 11 Nordeste 0 -- -- 96
2019-11-30 00:00:00 11.9 6 Nordeste 10 Nordeste 0 -- -- 96
2019-11-29 23:00:00 12.1 6 Nordeste 8 Nordeste 0 -- -- 96
2019-11-29 22:00:00 12.6 0 Calma 7 Este 0 -- -- 96
2019-11-29 21:00:00 13.8 6 Este 8 Este 0 -- -- 93
2019-11-29 20:00:00 14.3 0 Calma 5 Sudeste 0 -- -- 93
2019-11-29 19:00:00 13.8 4 Sudoeste 9 Noroeste 0 -- -- 90
2019-11-29 18:00:00 14.5 7 Noroeste 10 Noroeste 0 -- -- 88
2019-11-29 17:00:00 16 7 Oeste 17 Oeste 0 -- -- 84
2019-11-29 16:00:00 16.4 10 Oeste 19 Oeste 0 -- -- 83
2019-11-29 15:00:00 16.6 13 Oeste 24 Oeste 0 -- -- 81
2019-11-29 14:00:00 17.3 15 Oeste 24 Oeste 0 -- -- 79
2019-11-29 13:00:00 18.5 14 Oeste 24 Oeste 0 -- -- 78
2019-11-29 12:00:00 17.2 14 Oeste 27 Oeste 0 -- -- 80
2019-11-29 11:00:00 16.5 14 Oeste 25 Oeste 0 -- -- 83
2019-11-29 10:00:00 16 17 Oeste 33 Oeste 0 -- -- 84
2019-11-29 09:00:00 15.7 18 Oeste 34 Noroeste 0 -- -- 85
2019-11-29 08:00:00 15.4 22 Noroeste 36 Noroeste 0 -- -- 86
2019-11-29 07:00:00 15.3 21 Oeste 34 Oeste 0 -- -- 85
2019-11-29 06:00:00 15.2 17 Oeste 33 Oeste 0 -- -- 83
2019-11-29 05:00:00 15.1 16 Oeste 32 Oeste 0 -- -- 81
2019-11-29 04:00:00 15.2 16 Oeste 35 Oeste 0 -- -- 79
2019-11-29 03:00:00 15.2 17 Oeste 37 Sudoeste 0 -- -- 77
2019-11-29 02:00:00 15.1 21 Oeste 41 Oeste 0 -- -- 76
2019-11-29 01:00:00 15.2 23 Oeste 40 Oeste 0 -- -- 78
2019-11-29 00:00:00 15.1 21 Oeste 37 Oeste 0 -- -- 83
2019-11-28 23:00:00 15.2 22 Oeste 41 Oeste 0 -- -- 84
2019-11-28 22:00:00 15.1 16 Oeste 30 Oeste 0 -- -- 85
2019-11-28 21:00:00 14.6 12 Oeste 21 Oeste 0 -- -- 85
2019-11-28 20:00:00 14.9 13 Oeste 23 Oeste 0 -- -- 83
2019-11-28 19:00:00 14.9 13 Oeste 24 Oeste 0 -- -- 79
2019-11-28 18:00:00 15.1 14 Oeste 25 Oeste 0 -- -- 80
2019-11-28 17:00:00 15.3 14 Oeste 27 Oeste 0 -- -- 79
2019-11-28 16:00:00 15.9 17 Oeste 35 Oeste 0 -- -- 76
2019-11-28 15:00:00 17.3 17 Oeste 33 Oeste 0 -- -- 74
2019-11-28 14:00:00 17.6 17 Oeste 29 Oeste 0 -- -- 74
2019-11-28 13:00:00 17.9 16 Oeste 34 Oeste 0 -- -- 75
2019-11-28 12:00:00 17.5 19 Noroeste 36 Oeste 0 -- -- 74
2019-11-28 11:00:00 17.9 17 Noroeste 34 Oeste 0 -- -- 76
2019-11-28 10:00:00 16.4 20 Oeste 38 Noroeste 0 -- -- 78
2019-11-28 09:00:00 16.2 25 Noroeste 39 Oeste 0 -- -- 80
2019-11-28 08:00:00 15.2 22 Oeste 38 Oeste 0 -- -- 82
2019-11-28 07:00:00 15.1 21 Noroeste 37 Oeste 0 -- -- 82
2019-11-28 06:00:00 15.1 21 Oeste 38 Noroeste 0 -- -- 85
2019-11-28 05:00:00 14.1 13 Noroeste 23 Oeste 0 -- -- 85
2019-11-28 04:00:00 14 12 Noroeste 22 Oeste 0 -- -- 84
2019-11-28 03:00:00 15.4 15 Oeste 29 Oeste 0 -- -- 79
2019-11-28 02:00:00 15.4 17 Oeste 40 Oeste 0 -- -- 76
2019-11-28 01:00:00 15.6 22 Oeste 39 Oeste 0 -- -- 74
2019-11-28 00:00:00 15.9 23 Oeste 37 Sudoeste 0 -- -- 70
2019-11-27 23:00:00 16 20 Oeste 40 Sudoeste 0 -- -- 72
2019-11-27 22:00:00 16.2 22 Oeste 40 Oeste 0 -- -- 75
2019-11-27 21:00:00 16.1 19 Oeste 33 Oeste 0 -- -- 80
2019-11-27 20:00:00 15.9 14 Oeste 29 Oeste 0 -- -- 84
2019-11-27 19:00:00 15.5 13 Noroeste 26 Oeste 0 -- -- 86
2019-11-27 18:00:00 15.6 12 Oeste 26 Oeste 0 -- -- 85
2019-11-27 17:00:00 16.4 14 Oeste 26 Oeste 0 -- -- 82
2019-11-27 16:00:00 18.1 14 Noroeste 30 Oeste 0 -- -- 78
2019-11-27 15:00:00 17.9 19 Noroeste 33 Oeste 0 -- -- 78
2019-11-27 14:00:00 18 21 Noroeste 36 Oeste 0 -- -- 76
2019-11-27 06:00:00 -- -- -- -- -- -- -- -- --
2019-11-27 05:00:00 15.8 14 Oeste 32 Oeste 0 -- -- 94
2019-11-27 04:00:00 15.7 15 Sudoeste 33 Sudoeste 0 -- -- 94
2019-11-27 03:00:00 15.6 16 Sudoeste 31 Sudoeste 0 -- -- 94
2019-11-27 02:00:00 15.6 18 Sudoeste 40 Sudoeste 0 -- -- 94
2019-11-27 01:00:00 15.6 22 Sudoeste 37 Sudoeste 0 -- -- 94
2019-11-27 00:00:00 15.4 22 Sudoeste 37 Oeste 0 -- -- 93
2019-11-26 23:00:00 15.3 16 Sudoeste 35 Sudoeste 0 -- -- 93
2019-11-26 22:00:00 15.4 17 Sudoeste 37 Sudoeste 0 -- -- 92
2019-11-26 21:00:00 15.5 17 Sudoeste 35 Sudoeste 0 -- -- 90
2019-11-26 20:00:00 15.4 19 Sudoeste 40 Oeste 0 -- -- 89
2019-11-26 19:00:00 15.5 19 Sudoeste 33 Sudoeste 0 -- -- 88
2019-11-26 18:00:00 15.4 13 Sudoeste 26 Sudoeste 0 -- -- 86
2019-11-26 17:00:00 16.5 11 Sudoeste 27 Sudoeste 0 -- -- 81
2019-11-26 16:00:00 18.7 12 Sudoeste 28 Sudoeste 0 -- -- 76
2019-11-26 15:00:00 19 13 Sudoeste 25 Sudoeste 0 -- -- 75
2019-11-26 14:00:00 19 13 Sudoeste 26 Oeste 0 -- -- 75
2019-11-26 13:00:00 18.4 12 Oeste 22 Oeste 0 -- -- 81
2019-11-26 12:00:00 18.3 12 Oeste 22 Oeste 0 -- -- 84
2019-11-26 11:00:00 18.7 8 Sudoeste 14 Sur 0 -- -- 85
2019-11-26 10:00:00 16.7 4 Sudeste 9 Este 0 -- -- 91
2019-11-26 09:00:00 14.3 5 Nordeste 8 Sur 0 -- -- 93
2019-11-26 08:00:00 12.8 4 Este 8 Este 0 -- -- 92
2019-11-26 07:00:00 11.8 3 Este 7 Este 0 -- -- 90
2019-11-26 06:00:00 12 6 Sudeste 8 Sudeste 0 -- -- 89
2019-11-26 05:00:00 12.8 3 Sudeste 8 Este 0 -- -- 88
2019-11-26 04:00:00 12.8 5 Sudeste 7 Sudeste 0 -- -- 85
2019-11-26 03:00:00 13.1 5 Este 6 Sudeste 0 -- -- 83
2019-11-26 02:00:00 13.5 3 Sur 6 Sudoeste 0 -- -- 85
2019-11-26 01:00:00 12.4 2 Nordeste 9 Este 0 -- -- 87
2019-11-26 00:00:00 11.5 8 Nordeste 12 Nordeste 0 -- -- 88
2019-11-25 23:00:00 14.3 8 Oeste 13 Oeste 0 -- -- 86
2019-11-25 22:00:00 13.6 8 Oeste 11 Noroeste 0 -- -- 86
2019-11-25 21:00:00 13.5 6 Noroeste 14 Noroeste 0 -- -- 85
2019-11-25 20:00:00 13.7 9 Noroeste 14 Noroeste 0 -- -- 83
2019-11-25 19:00:00 14.5 8 Noroeste 26 Noroeste 0 -- -- 79
2019-11-25 18:00:00 15.1 15 Noroeste 36 Oeste 0 -- -- 84
2019-11-25 17:00:00 15.6 21 Noroeste 37 Oeste 0 -- -- 83
2019-11-25 16:00:00 16.7 17 Oeste 31 Oeste 0 -- -- 78
2019-11-25 15:00:00 17 19 Oeste 35 Oeste 0 -- -- 76
2019-11-25 14:00:00 17.3 19 Oeste 31 Oeste 0 -- -- 74
2019-11-25 13:00:00 17.4 15 Oeste 32 Oeste 0 -- -- 76
2019-11-25 12:00:00 17.4 18 Oeste 34 Oeste 0 -- -- 74
2019-11-25 11:00:00 16.9 16 Oeste 32 Oeste 0 -- -- 74
2019-11-25 10:00:00 16 18 Oeste 32 Oeste 0 -- -- 76
2019-11-25 09:00:00 15.3 18 Noroeste 33 Oeste 0 -- -- 77
2019-11-25 08:00:00 14.3 20 Oeste 36 Oeste 0 -- -- 73
2019-11-25 07:00:00 14.2 22 Noroeste 43 Oeste 0 -- -- 74
2019-11-25 06:00:00 14.2 20 Oeste 33 Oeste 0 -- -- 74
2019-11-25 05:00:00 12.6 8 Oeste 14 Oeste 0 -- -- 75
2019-11-25 04:00:00 11.7 7 Noroeste 15 Noroeste 0 -- -- 73
2019-11-25 03:00:00 12.2 9 Noroeste 24 Oeste 0 -- -- 70
2019-11-25 02:00:00 13.2 15 Noroeste 26 Noroeste 0 -- -- 62
2019-11-25 01:00:00 13.2 13 Noroeste 26 Oeste 0 -- -- 67
2019-11-25 00:00:00 13.2 10 Oeste 24 Noroeste 0 -- -- 71
2019-11-24 23:00:00 13.4 17 Noroeste 26 Oeste 0 -- -- 68
2019-11-24 22:00:00 12.6 13 Noroeste 26 Noroeste 0 -- -- 70
2019-11-24 21:00:00 13.1 15 Noroeste 27 Noroeste 0 -- -- 67
2019-11-24 20:00:00 13.5 19 Noroeste 34 Oeste 0 -- -- 65
2019-11-24 19:00:00 13.7 19 Noroeste 33 Noroeste 0 -- -- 65
2019-11-24 18:00:00 13.6 18 Noroeste 32 Noroeste 0 -- -- 66
2019-11-24 17:00:00 13.4 18 Noroeste 37 Noroeste 0 -- -- 65
2019-11-24 16:00:00 14.6 21 Noroeste 36 Noroeste 0 -- -- 60
2019-11-24 15:00:00 15.6 18 Noroeste 39 Noroeste 0 -- -- 56
2019-11-24 14:00:00 15.5 25 Noroeste 44 Noroeste 0 -- -- 57
2019-11-24 13:00:00 15.8 22 Noroeste 37 Noroeste 0 -- -- 56
2019-11-24 12:00:00 16 21 Noroeste 45 Noroeste 0 -- -- 56
2019-11-24 11:00:00 15.5 28 Noroeste 49 Noroeste 0 -- -- 55
2019-11-24 10:00:00 15 21 Noroeste 40 Noroeste 0 -- -- 55
2019-11-24 09:00:00 14.1 21 Noroeste 48 Noroeste 0 -- -- 59
2019-11-24 08:00:00 13.1 30 Noroeste 50 Noroeste 0 -- -- 59
2019-11-24 07:00:00 13.3 25 Noroeste 47 Noroeste 0 -- -- 61
2019-11-24 06:00:00 13 22 Noroeste 59 Noroeste 0 -- -- 62
2019-11-24 05:00:00 13.2 33 Noroeste 60 Noroeste 0 -- -- 58
2019-11-24 04:00:00 13.4 33 Noroeste 61 Noroeste 0 -- -- 60
2019-11-24 03:00:00 13.3 28 Noroeste 54 Noroeste 0 -- -- 64
2019-11-24 02:00:00 13.6 28 Noroeste 54 Noroeste 0 -- -- 62
2019-11-24 01:00:00 13.9 39 Noroeste 59 Noroeste 0 -- -- 57
2019-11-24 00:00:00 13.6 30 Noroeste 57 Noroeste 0 -- -- 58
2019-11-23 23:00:00 14 37 Noroeste 64 Noroeste 0 -- -- 53
2019-11-23 22:00:00 14.4 34 Noroeste 60 Noroeste 0 -- -- 54
2019-11-23 21:00:00 14.2 26 Noroeste 54 Noroeste 0 -- -- 56
2019-11-23 20:00:00 14.3 26 Noroeste 44 Oeste 0 -- -- 59
2019-11-23 19:00:00 14.2 30 Noroeste 57 Noroeste 0 -- -- 55
2019-11-23 18:00:00 14.4 32 Noroeste 53 Oeste 0 -- -- 65
2019-11-23 17:00:00 13.6 24 Noroeste 52 Noroeste 0 -- -- 74
2019-11-23 16:00:00 13.9 28 Noroeste 60 Noroeste 0 -- -- 78
2019-11-23 15:00:00 12.2 20 Noroeste 34 Oeste 0.8 -- -- 93
2019-11-23 14:00:00 11.8 14 Oeste 34 Noroeste 2 -- -- 93
2019-11-23 13:00:00 11 27 Noroeste 69 Oeste 1.4 -- -- 81
2019-11-23 12:00:00 16 29 Oeste 69 Oeste 0 -- -- 70
2019-11-23 11:00:00 15.1 38 Oeste 63 Oeste 0 -- -- 66
2019-11-23 10:00:00 15.2 36 Oeste 60 Oeste 0 -- -- 65
2019-11-23 09:00:00 15.6 35 Oeste 61 Oeste 0 -- -- 65
2019-11-23 08:00:00 15.3 22 Oeste 40 Oeste 0 -- -- 77
2019-11-23 07:00:00 15.5 23 Sudoeste 40 Sudoeste 0 -- -- 87
2019-11-23 06:00:00 15.5 22 Oeste 40 Sudoeste 0 -- -- 90
2019-11-23 05:00:00 15.6 25 Oeste 47 Sudoeste 0 -- -- 93
2019-11-23 04:00:00 15.9 26 Oeste 52 Sudoeste 0.2 -- -- 94
2019-11-23 03:00:00 16.2 31 Sudoeste 55 Sudoeste 0.4 -- -- 94
2019-11-23 02:00:00 16.2 29 Sudoeste 56 Sudoeste 0 -- -- 95
2019-11-23 01:00:00 15.6 28 Sudoeste 56 Sur 0.4 -- -- 95
2019-11-23 00:00:00 15.1 37 Sur 60 Sur 1.4 -- -- 94
2019-11-22 23:00:00 15.3 38 Sur 63 Sur 2.4 -- -- 93
2019-11-22 22:00:00 14.5 36 Sur 60 Sur 3 -- -- 91
2019-11-22 21:00:00 15.5 35 Sur 55 Sur 0.6 -- -- 85
2019-11-22 20:00:00 16.2 31 Sur 50 Sur 0 -- -- 85
2019-11-22 19:00:00 15.8 24 Sur 55 Sur 0 -- -- 84
2019-11-22 18:00:00 16.2 32 Sur 46 Sur 0 -- -- 84
2019-11-22 17:00:00 16.2 24 Sur 41 Sur 0 -- -- 85
2019-11-22 16:00:00 16.3 18 Sudoeste 40 Sudoeste 0 -- -- 85
2019-11-22 15:00:00 16.7 17 Sudoeste 39 Sudoeste 0 -- -- 85
2019-11-22 14:00:00 16.5 19 Sudoeste 45 Sudoeste 0.2 -- -- 90
2019-11-22 13:00:00 15.8 24 Sudoeste 44 Sudoeste 0 -- -- 88
2019-11-22 12:00:00 15.2 23 Sudoeste 42 Sudoeste 0.4 -- -- 89
2019-11-22 11:00:00 15.7 15 Sudoeste 40 Sudoeste 0 -- -- 93
2019-11-22 10:00:00 15.4 16 Sudoeste 35 Sudoeste 0 -- -- 95
2019-11-22 09:00:00 14.4 21 Sudoeste 35 Oeste 1.4 -- -- 95
2019-11-22 08:00:00 13.3 3 Sudeste 12 Sudeste 4.6 -- -- 94
2019-11-22 07:00:00 12.9 7 Sudeste 12 Sudeste 0.2 -- -- 93
2019-11-22 06:00:00 13 8 Sudeste 13 Sur 0.2 -- -- 93
2019-11-22 05:00:00 13.4 9 Sur 14 Sudoeste 2.8 -- -- 91
2019-11-22 04:00:00 14.2 8 Sudoeste 26 Sur 2.6 -- -- 89
2019-11-22 03:00:00 13.8 5 Oeste 17 Oeste 1 -- -- 88
2019-11-22 02:00:00 14.8 11 Sudoeste 21 Sudoeste 0 -- -- 83
2019-11-22 01:00:00 15.1 11 Sudoeste 23 Sudoeste 0 -- -- 79
2019-11-22 00:00:00 15.2 13 Sudoeste 24 Sudoeste 0 -- -- 79
2019-11-21 23:00:00 14.8 11 Sudoeste 22 Sudoeste 0 -- -- 78
2019-11-21 22:00:00 14.9 13 Sudoeste 23 Sudoeste 0 -- -- 74
2019-11-21 21:00:00 14.8 13 Sudoeste 25 Sudoeste 0 -- -- 71
2019-11-21 20:00:00 14.5 13 Sudoeste 25 Oeste 0 -- -- 72
2019-11-21 19:00:00 14 12 Oeste 26 Oeste 0 -- -- 70
2019-11-21 18:00:00 14.1 15 Oeste 32 Oeste 0 -- -- 69
2019-11-21 17:00:00 14.2 15 Oeste 33 Sudoeste 0 -- -- 67
2019-11-21 16:00:00 14.4 20 Oeste 37 Oeste 0 -- -- 68
2019-11-21 15:00:00 14.7 24 Oeste 40 Oeste 0 -- -- 64
2019-11-21 14:00:00 15 23 Oeste 39 Oeste 0 -- -- 65
2019-11-21 13:00:00 16.4 23 Oeste 40 Oeste 0 -- -- 63
2019-11-21 12:00:00 15.6 19 Oeste 37 Oeste 0 -- -- 64
2019-11-21 11:00:00 15.3 21 Oeste 33 Oeste 0 -- -- 66
2019-11-21 10:00:00 15 17 Oeste 31 Noroeste 0 -- -- 67
2019-11-21 09:00:00 15.2 17 Oeste 29 Oeste 0 -- -- 68
2019-11-21 08:00:00 13.1 15 Oeste 35 Oeste 0 -- -- 73
2019-11-21 07:00:00 13 18 Oeste 34 Oeste 0 -- -- 78
2019-11-21 06:00:00 12.1 16 Oeste 27 Sudoeste 0 -- -- 87
2019-11-21 05:00:00 11.6 10 Sudoeste 28 Sudoeste 0.2 -- -- 89
2019-11-21 04:00:00 11.1 14 Sudoeste 39 Oeste 4 -- -- 87
2019-11-21 03:00:00 13.4 15 Sudoeste 33 Sudoeste 0 -- -- 73
2019-11-21 02:00:00 14 18 Sudoeste 39 Sudoeste 0 -- -- 72
2019-11-21 01:00:00 13 12 Oeste 24 Oeste 0 -- -- 78
2019-11-21 00:00:00 13.6 12 Sudoeste 23 Oeste 0 -- -- 69
2019-11-20 23:00:00 13.5 12 Sudoeste 26 Sudoeste 0 -- -- 71
2019-11-20 22:00:00 13.4 11 Sudoeste 25 Sudoeste 0 -- -- 70
2019-11-20 21:00:00 13.3 12 Sudoeste 27 Sudoeste 0 -- -- 75
2019-11-20 20:00:00 13.3 13 Sudoeste 23 Sudoeste 0 -- -- 73
2019-11-20 19:00:00 13 9 Sudoeste 19 Sudoeste 0 -- -- 79
2019-11-20 18:00:00 11.9 6 Sur 16 Sudoeste 0 -- -- 79
2019-11-20 17:00:00 12.8 6 Sur 26 Sur 0 -- -- 76
2019-11-20 16:00:00 13.8 10 Sur 17 Sudeste 0 -- -- 71
2019-11-20 15:00:00 14.9 12 Sudeste 20 Sudeste 0 -- -- 75
2019-11-20 14:00:00 12.8 13 Sudeste 23 Sur 0 -- -- 78
2019-11-20 13:00:00 14.1 11 Sudeste 19 Este 0 -- -- 66
2019-11-20 12:00:00 13.3 8 Sudeste 13 Este 0 -- -- 66
2019-11-20 11:00:00 12.7 5 Este 9 Este 0 -- -- 76
2019-11-20 10:00:00 9.9 6 Nordeste 12 Este 0 -- -- 75
2019-11-20 09:00:00 9.2 9 Este 12 Este 0 -- -- 73
2019-11-20 08:00:00 7.9 7 Nordeste 13 Nordeste 0 -- -- 75
2019-11-20 07:00:00 7.9 9 Nordeste 13 Nordeste 0 -- -- 74
2019-11-20 06:00:00 7.5 8 Nordeste 13 Nordeste 0 -- -- 73
2019-11-20 05:00:00 7.7 8 Nordeste 12 Nordeste 0 -- -- 72
2019-11-20 04:00:00 8.9 6 Nordeste 10 Nordeste 0 -- -- 69
2019-11-20 03:00:00 8 8 Nordeste 12 Este 0 -- -- 72
2019-11-20 02:00:00 8.6 8 Norte 12 Norte 0 -- -- 68
2019-11-20 01:00:00 8.6 8 Norte 14 Norte 0 -- -- 65
2019-11-20 00:00:00 8.9 9 Norte 13 Norte 0 -- -- 65
2019-11-19 23:00:00 9 7 Norte 12 Norte 0 -- -- 67
2019-11-19 22:00:00 8.7 9 Norte 12 Norte 0 -- -- 68
2019-11-19 21:00:00 8.5 8 Norte 11 Nordeste 0 -- -- 70
2019-11-19 20:00:00 10.2 4 Noroeste 9 Noroeste 0 -- -- 67
2019-11-19 19:00:00 9.7 6 Noroeste 13 Noroeste 0 -- -- 69
2019-11-19 18:00:00 10.1 6 Noroeste 13 Oeste 0 -- -- 68
2019-11-19 17:00:00 12.3 9 Noroeste 22 Oeste 0 -- -- 60
2019-11-19 16:00:00 13 9 Oeste 23 Oeste 0 -- -- 61
2019-11-19 15:00:00 14.1 13 Oeste 23 Noroeste 0 -- -- 66
2019-11-19 14:00:00 13.1 0 Calma 5 Oeste 0 -- -- 82
2019-11-19 13:00:00 12.8 0 Calma 13 Noroeste 0.4 -- -- 84
2019-11-19 12:00:00 10.1 10 Noroeste 25 Noroeste 0.6 -- -- 81
2019-11-19 11:00:00 12.2 6 Noroeste 14 Noroeste 0 -- -- 75
2019-11-19 10:00:00 11.9 0 Calma 7 Norte 0 -- -- 81
2019-11-19 09:00:00 13.6 2 Noroeste 5 Noroeste 0 -- -- 79
2019-11-19 08:00:00 9 0 Calma 6 Norte 0 -- -- 88
2019-11-19 07:00:00 8.9 0 Calma 5 Norte 0 -- -- 89
2019-11-19 06:00:00 8.7 5 Norte 7 Noroeste 0 -- -- 90
2019-11-19 05:00:00 8.6 6 Noroeste 8 Noroeste 0 -- -- 90
2019-11-19 04:00:00 7.4 5 Norte 9 Norte 0 -- -- 91
2019-11-19 03:00:00 7.5 5 Norte 9 Nordeste 0 -- -- 90
2019-11-19 02:00:00 8.4 6 Nordeste 9 Norte 0 -- -- 89
2019-11-19 01:00:00 8.8 5 Norte 20 Noroeste 0.4 -- -- 87
2019-11-19 00:00:00 9.5 11 Noroeste 21 Noroeste 0 -- -- 79
2019-11-18 23:00:00 8.7 10 Norte 15 Nordeste 0 -- -- 78
2019-11-18 22:00:00 8.5 8 Norte 19 Norte 0 -- -- 76
2019-11-18 21:00:00 8.6 10 Norte 17 Norte 0 -- -- 78
2019-11-18 20:00:00 9.2 10 Norte 22 Nordeste 0 -- -- 79
2019-11-18 19:00:00 9.6 8 Norte 23 Norte 0 -- -- 78
2019-11-18 18:00:00 10 12 Norte 28 Nordeste 0 -- -- 77
2019-11-18 17:00:00 11.5 20 Norte 38 Norte 0 -- -- 77
2019-11-18 16:00:00 11.6 15 Norte 39 Norte 0.4 -- -- 83
2019-11-18 15:00:00 12.5 18 Nordeste 36 Norte 0.4 -- -- 83
2019-11-18 14:00:00 15.3 6 Norte 18 Nordeste 0 -- -- 64
2019-11-18 13:00:00 15 9 Norte 16 Norte 0 -- -- 68
2019-11-18 12:00:00 13.5 6 Norte 13 Noroeste 0 -- -- 76
2019-11-18 11:00:00 13.1 9 Norte 14 Nordeste 0 -- -- 82
2019-11-18 10:00:00 11.9 6 Nordeste 13 Nordeste 0 -- -- 87
2019-11-18 09:00:00 11.5 9 Norte 20 Noroeste 0 -- -- 85
2019-11-18 08:00:00 11.6 12 Noroeste 24 Noroeste 0 -- -- 88
2019-11-18 07:00:00 11.3 11 Norte 20 Noroeste 0 -- -- 87
2019-11-18 06:00:00 12.2 11 Noroeste 37 Noroeste 0 -- -- 86
2019-11-18 05:00:00 12.9 22 Noroeste 39 Oeste 0.2 -- -- 82
2019-11-18 04:00:00 13 18 Oeste 33 Oeste 0 -- -- 85
2019-11-18 03:00:00 12.6 12 Oeste 27 Oeste 0.2 -- -- 86
2019-11-18 02:00:00 12.5 16 Oeste 36 Oeste 0.2 -- -- 82
2019-11-18 01:00:00 13.9 17 Oeste 36 Oeste 0 -- -- 75
2019-11-18 00:00:00 15.1 18 Oeste 37 Oeste 0 -- -- 69
2019-11-17 23:00:00 15.1 22 Oeste 39 Oeste 0 -- -- 66
2019-11-17 22:00:00 14.8 21 Oeste 39 Oeste 0 -- -- 62
2019-11-17 21:00:00 14.4 20 Oeste 38 Oeste 0 -- -- 61
2019-11-17 20:00:00 14.3 19 Oeste 33 Oeste 0 -- -- 63
2019-11-17 19:00:00 13.8 19 Oeste 35 Oeste 0 -- -- 57
2019-11-17 18:00:00 13.4 19 Oeste 39 Sudoeste 0 -- -- 58
2019-11-17 17:00:00 13.7 23 Oeste 40 Oeste 0 -- -- 59
2019-11-17 16:00:00 14.9 21 Oeste 44 Noroeste 0 -- -- 56
2019-11-17 15:00:00 14.7 23 Oeste 45 Oeste 0 -- -- 55
2019-11-17 14:00:00 15 23 Oeste 43 Oeste 0 -- -- 54
2019-11-17 13:00:00 14.4 23 Oeste 43 Oeste 0 -- -- 58
2019-11-17 12:00:00 14.7 23 Oeste 44 Oeste 0 -- -- 59
2019-11-17 11:00:00 14.8 23 Oeste 42 Oeste 0 -- -- 51
2019-11-17 10:00:00 14.2 24 Oeste 40 Oeste 0 -- -- 50
2019-11-17 09:00:00 14.8 19 Oeste 35 Noroeste 0 -- -- 49
2019-11-17 08:00:00 12.7 19 Noroeste 39 Noroeste 0 -- -- 55
2019-11-17 07:00:00 12.3 17 Noroeste 39 Noroeste 0 -- -- 51
2019-11-17 06:00:00 12.6 17 Noroeste 30 Noroeste 0 -- -- 54
2019-11-17 05:00:00 11.8 16 Noroeste 42 Noroeste 0 -- -- 55
2019-11-17 04:00:00 12.1 23 Noroeste 51 Noroeste 0 -- -- 52
2019-11-17 03:00:00 12.7 27 Noroeste 49 Noroeste 0 -- -- 53
2019-11-17 02:00:00 13.2 31 Noroeste 54 Noroeste 0 -- -- 59
2019-11-17 01:00:00 13.2 36 Noroeste 53 Oeste 0 -- -- 60
2019-11-17 00:00:00 12.1 19 Noroeste 35 Noroeste 0 -- -- 62
2019-11-16 23:00:00 11.2 18 Noroeste 41 Noroeste 0.2 -- -- 62
2019-11-16 22:00:00 11 17 Noroeste 38 Noroeste 0 -- -- 64
2019-11-16 21:00:00 10.1 13 Noroeste 22 Noroeste 0 -- -- 79
2019-11-16 20:00:00 9.8 13 Noroeste 23 Norte 0 -- -- 77
2019-11-16 19:00:00 9.8 13 Noroeste 21 Noroeste 0 -- -- 76
2019-11-16 18:00:00 9.7 12 Noroeste 18 Noroeste 0 -- -- 78
2019-11-16 17:00:00 10 10 Norte 21 Norte 0 -- -- 78
2019-11-16 16:00:00 10.3 9 Norte 27 Noroeste 0 -- -- 76
2019-11-16 15:00:00 10.4 17 Norte 41 Norte 0 -- -- 72
2019-11-16 14:00:00 13.9 11 Noroeste 19 Noroeste 0 -- -- 56
2019-11-16 13:00:00 13.1 10 Norte 17 Norte 0 -- -- 61
2019-11-16 12:00:00 12.3 9 Norte 15 Norte 0 -- -- 69
2019-11-16 11:00:00 11.1 7 Norte 13 Norte 0 -- -- 72
2019-11-16 10:00:00 9.9 8 Norte 15 Norte 0 -- -- 72
2019-11-16 09:00:00 8.6 9 Norte 15 Nordeste 0 -- -- 75
2019-11-16 08:00:00 8 10 Nordeste 21 Este 0 -- -- 75
2019-11-16 07:00:00 7.9 8 Nordeste 13 Norte 0 -- -- 71
2019-11-16 06:00:00 8.7 9 Norte 23 Noroeste 0 -- -- 69
2019-11-16 05:00:00 8.4 12 Norte 20 Norte 0 -- -- 76
2019-11-16 04:00:00 7.8 13 Nordeste 27 Norte 0 -- -- 80
2019-11-16 03:00:00 8 18 Norte 32 Norte 0 -- -- 77
2019-11-16 02:00:00 12.6 16 Noroeste 35 Noroeste 0 -- -- 56
2019-11-16 01:00:00 12 8 Sudoeste 18 Sudoeste 0 -- -- 53
2019-11-16 00:00:00 11.7 8 Sudoeste 13 Sudoeste 0 -- -- 52